sensor_id;sensor_type;location;lat;lon;timestamp;P1;durP1;ratioP1;P2;durP2;ratioP2
12059;SDS011;6091;51.432;6.880;2023-07-31T00:00:26;1.27;;;1.00;;
12059;SDS011;6091;51.432;6.880;2023-07-31T00:02:53;1.20;;;0.95;;
12059;SDS011;6091;51.432;6.880;2023-07-31T00:05:23;1.00;;;1.00;;
12059;SDS011;6091;51.432;6.880;2023-07-31T00:07:50;1.20;;;1.10;;
12059;SDS011;6091;51.432;6.880;2023-07-31T00:10:17;1.15;;;1.05;;
12059;SDS011;6091;51.432;6.880;2023-07-31T00:12:45;1.17;;;1.08;;
12059;SDS011;6091;51.432;6.880;2023-07-31T00:15:15;1.30;;;1.20;;
12059;SDS011;6091;51.432;6.880;2023-07-31T00:17:42;1.13;;;1.02;;
12059;SDS011;6091;51.432;6.880;2023-07-31T00:20:09;1.20;;;1.10;;
12059;SDS011;6091;51.432;6.880;2023-07-31T00:22:37;1.60;;;1.13;;
12059;SDS011;6091;51.432;6.880;2023-07-31T00:25:04;1.00;;;1.00;;
12059;SDS011;6091;51.432;6.880;2023-07-31T00:27:32;1.15;;;1.05;;
12059;SDS011;6091;51.432;6.880;2023-07-31T00:30:00;1.23;;;1.08;;
12059;SDS011;6091;51.432;6.880;2023-07-31T00:32:27;1.77;;;1.30;;
12059;SDS011;6091;51.432;6.880;2023-07-31T00:34:54;1.13;;;1.02;;
12059;SDS011;6091;51.432;6.880;2023-07-31T00:37:21;1.15;;;1.08;;
12059;SDS011;6091;51.432;6.880;2023-07-31T00:39:48;1.35;;;1.25;;
12059;SDS011;6091;51.432;6.880;2023-07-31T00:42:15;1.30;;;1.20;;
12059;SDS011;6091;51.432;6.880;2023-07-31T00:44:42;2.15;;;1.13;;
12059;SDS011;6091;51.432;6.880;2023-07-31T00:47:09;1.15;;;1.05;;
12059;SDS011;6091;51.432;6.880;2023-07-31T00:49:36;1.20;;;1.10;;
12059;SDS011;6091;51.432;6.880;2023-07-31T00:52:04;1.35;;;1.20;;
12059;SDS011;6091;51.432;6.880;2023-07-31T00:54:32;1.63;;;1.20;;
12059;SDS011;6091;51.432;6.880;2023-07-31T00:57:00;1.13;;;1.00;;
12059;SDS011;6091;51.432;6.880;2023-07-31T00:59:27;1.75;;;1.33;;
12059;SDS011;6091;51.432;6.880;2023-07-31T01:01:54;1.23;;;1.13;;
12059;SDS011;6091;51.432;6.880;2023-07-31T01:04:22;1.23;;;1.13;;
12059;SDS011;6091;51.432;6.880;2023-07-31T01:09:44;1.27;;;1.17;;
12059;SDS011;6091;51.432;6.880;2023-07-31T01:12:34;1.40;;;1.30;;
12059;SDS011;6091;51.432;6.880;2023-07-31T01:15:05;1.25;;;1.15;;
12059;SDS011;6091;51.432;6.880;2023-07-31T01:17:37;1.15;;;1.05;;
12059;SDS011;6091;51.432;6.880;2023-07-31T01:20:07;1.88;;;1.25;;
12059;SDS011;6091;51.432;6.880;2023-07-31T01:26:11;1.58;;;1.48;;
12059;SDS011;6091;51.432;6.880;2023-07-31T01:31:20;1.55;;;1.27;;
12059;SDS011;6091;51.432;6.880;2023-07-31T01:33:51;1.33;;;1.23;;
12059;SDS011;6091;51.432;6.880;2023-07-31T01:36:22;1.42;;;1.33;;
12059;SDS011;6091;51.432;6.880;2023-07-31T01:38:50;1.40;;;1.20;;
12059;SDS011;6091;51.432;6.880;2023-07-31T01:41:17;1.60;;;1.50;;
12059;SDS011;6091;51.432;6.880;2023-07-31T01:43:45;1.50;;;1.40;;
12059;SDS011;6091;51.432;6.880;2023-07-31T01:46:13;1.42;;;1.33;;
12059;SDS011;6091;51.432;6.880;2023-07-31T01:48:40;1.75;;;1.20;;
12059;SDS011;6091;51.432;6.880;2023-07-31T01:51:07;1.30;;;1.20;;
12059;SDS011;6091;51.432;6.880;2023-07-31T01:53:34;1.92;;;1.27;;
12059;SDS011;6091;51.432;6.880;2023-07-31T01:56:01;1.42;;;1.33;;
12059;SDS011;6091;51.432;6.880;2023-07-31T01:58:28;1.40;;;1.30;;
12059;SDS011;6091;51.432;6.880;2023-07-31T02:00:56;1.35;;;1.25;;
12059;SDS011;6091;51.432;6.880;2023-07-31T02:03:23;1.27;;;1.17;;
12059;SDS011;6091;51.432;6.880;2023-07-31T02:05:50;1.38;;;1.25;;
12059;SDS011;6091;51.432;6.880;2023-07-31T02:08:17;1.40;;;1.30;;
12059;SDS011;6091;51.432;6.880;2023-07-31T02:10:44;1.45;;;1.23;;
12059;SDS011;6091;51.432;6.880;2023-07-31T02:13:12;1.70;;;1.60;;
12059;SDS011;6091;51.432;6.880;2023-07-31T02:15:39;1.60;;;1.50;;
12059;SDS011;6091;51.432;6.880;2023-07-31T02:18:06;1.60;;;1.50;;
12059;SDS011;6091;51.432;6.880;2023-07-31T02:20:34;1.55;;;1.27;;
12059;SDS011;6091;51.432;6.880;2023-07-31T02:23:01;1.40;;;1.30;;
12059;SDS011;6091;51.432;6.880;2023-07-31T02:25:29;1.20;;;1.10;;
12059;SDS011;6091;51.432;6.880;2023-07-31T02:27:56;1.90;;;1.65;;
12059;SDS011;6091;51.432;6.880;2023-07-31T02:30:23;1.40;;;1.30;;
12059;SDS011;6091;51.432;6.880;2023-07-31T02:32:50;1.50;;;1.40;;
12059;SDS011;6091;51.432;6.880;2023-07-31T02:35:17;1.60;;;1.50;;
12059;SDS011;6091;51.432;6.880;2023-07-31T02:37:44;1.30;;;1.20;;
12059;SDS011;6091;51.432;6.880;2023-07-31T02:40:12;1.60;;;1.50;;
12059;SDS011;6091;51.432;6.880;2023-07-31T02:42:39;1.70;;;1.60;;
12059;SDS011;6091;51.432;6.880;2023-07-31T02:45:06;1.63;;;1.30;;
12059;SDS011;6091;51.432;6.880;2023-07-31T02:47:34;1.15;;;1.05;;
12059;SDS011;6091;51.432;6.880;2023-07-31T02:50:02;1.67;;;1.38;;
12059;SDS011;6091;51.432;6.880;2023-07-31T02:52:30;1.60;;;1.42;;
12059;SDS011;6091;51.432;6.880;2023-07-31T02:54:57;1.63;;;1.52;;
12059;SDS011;6091;51.432;6.880;2023-07-31T02:57:24;1.60;;;1.50;;
12059;SDS011;6091;51.432;6.880;2023-07-31T02:59:51;1.60;;;1.50;;
12059;SDS011;6091;51.432;6.880;2023-07-31T03:02:19;1.40;;;1.30;;
12059;SDS011;6091;51.432;6.880;2023-07-31T03:04:46;1.70;;;1.58;;
12059;SDS011;6091;51.432;6.880;2023-07-31T03:07:14;1.50;;;1.40;;
12059;SDS011;6091;51.432;6.880;2023-07-31T03:09:41;1.58;;;1.42;;
12059;SDS011;6091;51.432;6.880;2023-07-31T03:12:08;1.60;;;1.48;;
12059;SDS011;6091;51.432;6.880;2023-07-31T03:14:35;1.50;;;1.40;;
12059;SDS011;6091;51.432;6.880;2023-07-31T03:17:02;1.50;;;1.40;;
12059;SDS011;6091;51.432;6.880;2023-07-31T03:19:30;1.55;;;1.38;;
12059;SDS011;6091;51.432;6.880;2023-07-31T03:21:58;2.08;;;1.40;;
12059;SDS011;6091;51.432;6.880;2023-07-31T03:24:26;2.08;;;1.70;;
12059;SDS011;6091;51.432;6.880;2023-07-31T03:26:54;1.90;;;1.58;;
12059;SDS011;6091;51.432;6.880;2023-07-31T03:29:22;1.60;;;1.50;;
12059;SDS011;6091;51.432;6.880;2023-07-31T03:31:50;1.60;;;1.50;;
12059;SDS011;6091;51.432;6.880;2023-07-31T03:34:17;1.55;;;1.45;;
12059;SDS011;6091;51.432;6.880;2023-07-31T03:36:44;1.60;;;1.50;;
12059;SDS011;6091;51.432;6.880;2023-07-31T03:39:11;1.60;;;1.50;;
12059;SDS011;6091;51.432;6.880;2023-07-31T03:41:38;1.80;;;1.70;;
12059;SDS011;6091;51.432;6.880;2023-07-31T03:44:05;1.98;;;1.40;;
12059;SDS011;6091;51.432;6.880;2023-07-31T03:46:32;2.00;;;1.83;;
12059;SDS011;6091;51.432;6.880;2023-07-31T03:49:00;1.48;;;1.35;;
12059;SDS011;6091;51.432;6.880;2023-07-31T03:51:28;1.52;;;1.23;;
12059;SDS011;6091;51.432;6.880;2023-07-31T03:53:55;1.65;;;1.55;;
12059;SDS011;6091;51.432;6.880;2023-07-31T03:56:23;1.65;;;1.48;;
12059;SDS011;6091;51.432;6.880;2023-07-31T03:58:50;1.60;;;1.50;;
12059;SDS011;6091;51.432;6.880;2023-07-31T04:01:17;1.52;;;1.42;;
12059;SDS011;6091;51.432;6.880;2023-07-31T04:03:46;1.60;;;1.45;;
12059;SDS011;6091;51.432;6.880;2023-07-31T04:06:13;1.80;;;1.70;;
12059;SDS011;6091;51.432;6.880;2023-07-31T04:08:44;1.55;;;1.38;;
12059;SDS011;6091;51.432;6.880;2023-07-31T04:11:11;1.60;;;1.50;;
12059;SDS011;6091;51.432;6.880;2023-07-31T04:13:38;1.65;;;1.40;;
12059;SDS011;6091;51.432;6.880;2023-07-31T04:16:05;1.52;;;1.42;;
12059;SDS011;6091;51.432;6.880;2023-07-31T04:18:33;1.85;;;1.50;;
12059;SDS011;6091;51.432;6.880;2023-07-31T04:21:00;1.80;;;1.50;;
12059;SDS011;6091;51.432;6.880;2023-07-31T04:23:28;1.95;;;1.38;;
12059;SDS011;6091;51.432;6.880;2023-07-31T04:25:55;2.05;;;1.80;;
12059;SDS011;6091;51.432;6.880;2023-07-31T04:28:24;1.50;;;1.40;;
12059;SDS011;6091;51.432;6.880;2023-07-31T04:30:52;1.85;;;1.75;;
12059;SDS011;6091;51.432;6.880;2023-07-31T04:33:20;1.60;;;1.50;;
12059;SDS011;6091;51.432;6.880;2023-07-31T04:35:50;2.28;;;1.95;;
12059;SDS011;6091;51.432;6.880;2023-07-31T04:38:19;1.45;;;1.35;;
12059;SDS011;6091;51.432;6.880;2023-07-31T04:40:48;1.63;;;1.50;;
12059;SDS011;6091;51.432;6.880;2023-07-31T04:43:15;2.17;;;1.80;;
12059;SDS011;6091;51.432;6.880;2023-07-31T04:45:45;1.45;;;1.35;;
12059;SDS011;6091;51.432;6.880;2023-07-31T04:48:14;2.58;;;1.58;;
12059;SDS011;6091;51.432;6.880;2023-07-31T04:50:41;1.70;;;1.60;;
12059;SDS011;6091;51.432;6.880;2023-07-31T04:53:08;2.00;;;1.80;;
12059;SDS011;6091;51.432;6.880;2023-07-31T04:55:35;1.27;;;1.20;;
12059;SDS011;6091;51.432;6.880;2023-07-31T04:58:02;1.70;;;1.60;;
12059;SDS011;6091;51.432;6.880;2023-07-31T05:00:29;1.95;;;1.50;;
12059;SDS011;6091;51.432;6.880;2023-07-31T05:02:56;1.60;;;1.50;;
12059;SDS011;6091;51.432;6.880;2023-07-31T05:05:24;2.40;;;1.50;;
12059;SDS011;6091;51.432;6.880;2023-07-31T05:07:51;1.70;;;1.60;;
12059;SDS011;6091;51.432;6.880;2023-07-31T05:10:18;1.88;;;1.60;;
12059;SDS011;6091;51.432;6.880;2023-07-31T05:12:45;1.65;;;1.55;;
12059;SDS011;6091;51.432;6.880;2023-07-31T05:15:12;1.75;;;1.63;;
12059;SDS011;6091;51.432;6.880;2023-07-31T05:17:41;1.40;;;1.30;;
12059;SDS011;6091;51.432;6.880;2023-07-31T05:20:08;2.33;;;1.50;;
12059;SDS011;6091;51.432;6.880;2023-07-31T05:22:36;1.95;;;1.60;;
12059;SDS011;6091;51.432;6.880;2023-07-31T05:25:04;1.65;;;1.55;;
12059;SDS011;6091;51.432;6.880;2023-07-31T05:27:31;2.17;;;1.70;;
12059;SDS011;6091;51.432;6.880;2023-07-31T05:29:59;1.70;;;1.52;;
12059;SDS011;6091;51.432;6.880;2023-07-31T05:32:26;1.92;;;1.58;;
12059;SDS011;6091;51.432;6.880;2023-07-31T05:34:53;1.70;;;1.60;;
12059;SDS011;6091;51.432;6.880;2023-07-31T05:37:21;2.40;;;1.50;;
12059;SDS011;6091;51.432;6.880;2023-07-31T05:39:48;2.00;;;1.60;;
12059;SDS011;6091;51.432;6.880;2023-07-31T05:42:16;1.80;;;1.42;;
12059;SDS011;6091;51.432;6.880;2023-07-31T05:44:43;2.13;;;1.67;;
12059;SDS011;6091;51.432;6.880;2023-07-31T05:47:10;1.48;;;1.38;;
12059;SDS011;6091;51.432;6.880;2023-07-31T05:49:37;1.50;;;1.40;;
12059;SDS011;6091;51.432;6.880;2023-07-31T05:52:04;1.70;;;1.60;;
12059;SDS011;6091;51.432;6.880;2023-07-31T05:54:32;1.75;;;1.60;;
12059;SDS011;6091;51.432;6.880;2023-07-31T05:56:59;2.05;;;1.70;;
12059;SDS011;6091;51.432;6.880;2023-07-31T05:59:26;1.55;;;1.45;;
12059;SDS011;6091;51.432;6.880;2023-07-31T06:01:53;1.38;;;1.27;;
12059;SDS011;6091;51.432;6.880;2023-07-31T06:04:20;2.08;;;1.65;;
12059;SDS011;6091;51.432;6.880;2023-07-31T06:06:50;1.48;;;1.38;;
12059;SDS011;6091;51.432;6.880;2023-07-31T06:09:18;1.65;;;1.55;;
12059;SDS011;6091;51.432;6.880;2023-07-31T06:11:46;1.60;;;1.50;;
12059;SDS011;6091;51.432;6.880;2023-07-31T06:14:13;1.63;;;1.52;;
12059;SDS011;6091;51.432;6.880;2023-07-31T06:16:41;1.40;;;1.30;;
12059;SDS011;6091;51.432;6.880;2023-07-31T06:19:08;2.70;;;1.60;;
12059;SDS011;6091;51.432;6.880;2023-07-31T06:21:35;1.58;;;1.48;;
12059;SDS011;6091;51.432;6.880;2023-07-31T06:24:08;3.03;;;1.75;;
12059;SDS011;6091;51.432;6.880;2023-07-31T06:26:35;1.67;;;1.58;;
12059;SDS011;6091;51.432;6.880;2023-07-31T06:29:03;1.63;;;1.50;;
12059;SDS011;6091;51.432;6.880;2023-07-31T06:31:30;2.10;;;1.67;;
12059;SDS011;6091;51.432;6.880;2023-07-31T06:33:57;2.10;;;1.73;;
12059;SDS011;6091;51.432;6.880;2023-07-31T06:36:24;1.88;;;1.75;;
12059;SDS011;6091;51.432;6.880;2023-07-31T06:38:51;2.00;;;1.80;;
12059;SDS011;6091;51.432;6.880;2023-07-31T06:41:18;2.25;;;2.05;;
12059;SDS011;6091;51.432;6.880;2023-07-31T06:43:45;2.10;;;1.85;;
12059;SDS011;6091;51.432;6.880;2023-07-31T06:46:12;2.08;;;1.73;;
12059;SDS011;6091;51.432;6.880;2023-07-31T06:48:40;2.47;;;1.88;;
12059;SDS011;6091;51.432;6.880;2023-07-31T06:51:07;2.67;;;2.30;;
12059;SDS011;6091;51.432;6.880;2023-07-31T06:53:34;2.78;;;1.92;;
12059;SDS011;6091;51.432;6.880;2023-07-31T06:56:01;2.65;;;2.20;;
12059;SDS011;6091;51.432;6.880;2023-07-31T06:58:28;3.88;;;1.92;;
12059;SDS011;6091;51.432;6.880;2023-07-31T07:00:55;2.20;;;1.92;;
12059;SDS011;6091;51.432;6.880;2023-07-31T07:03:22;3.20;;;1.95;;
12059;SDS011;6091;51.432;6.880;2023-07-31T07:05:50;3.92;;;2.28;;
12059;SDS011;6091;51.432;6.880;2023-07-31T07:08:17;2.42;;;1.88;;
12059;SDS011;6091;51.432;6.880;2023-07-31T07:10:44;3.05;;;2.10;;
12059;SDS011;6091;51.432;6.880;2023-07-31T07:13:11;2.20;;;1.73;;
12059;SDS011;6091;51.432;6.880;2023-07-31T07:15:40;2.42;;;1.90;;
12059;SDS011;6091;51.432;6.880;2023-07-31T07:18:07;2.85;;;2.30;;
12059;SDS011;6091;51.432;6.880;2023-07-31T07:20:37;8.15;;;2.67;;
12059;SDS011;6091;51.432;6.880;2023-07-31T07:23:04;3.50;;;2.00;;
12059;SDS011;6091;51.432;6.880;2023-07-31T07:25:31;4.55;;;2.10;;
12059;SDS011;6091;51.432;6.880;2023-07-31T07:28:17;4.10;;;2.17;;
12059;SDS011;6091;51.432;6.880;2023-07-31T07:30:50;3.38;;;2.13;;
12059;SDS011;6091;51.432;6.880;2023-07-31T07:33:25;4.15;;;2.28;;
12059;SDS011;6091;51.432;6.880;2023-07-31T07:36:05;2.40;;;2.20;;
12059;SDS011;6091;51.432;6.880;2023-07-31T07:38:36;2.35;;;2.05;;
12059;SDS011;6091;51.432;6.880;2023-07-31T07:41:03;3.00;;;1.85;;
12059;SDS011;6091;51.432;6.880;2023-07-31T07:43:30;3.28;;;2.38;;
12059;SDS011;6091;51.432;6.880;2023-07-31T07:45:57;4.07;;;2.28;;
12059;SDS011;6091;51.432;6.880;2023-07-31T07:48:24;3.00;;;2.30;;
12059;SDS011;6091;51.432;6.880;2023-07-31T07:50:51;2.85;;;2.40;;
12059;SDS011;6091;51.432;6.880;2023-07-31T07:53:19;3.03;;;2.13;;
12059;SDS011;6091;51.432;6.880;2023-07-31T07:55:46;2.53;;;2.03;;
12059;SDS011;6091;51.432;6.880;2023-07-31T07:58:15;2.72;;;2.00;;
12059;SDS011;6091;51.432;6.880;2023-07-31T08:00:42;2.00;;;1.80;;
12059;SDS011;6091;51.432;6.880;2023-07-31T08:03:17;4.78;;;1.95;;
12059;SDS011;6091;51.432;6.880;2023-07-31T08:05:44;4.35;;;2.20;;
12059;SDS011;6091;51.432;6.880;2023-07-31T08:08:15;2.83;;;2.00;;
12059;SDS011;6091;51.432;6.880;2023-07-31T08:10:46;4.07;;;1.95;;
12059;SDS011;6091;51.432;6.880;2023-07-31T08:13:13;5.97;;;2.33;;
12059;SDS011;6091;51.432;6.880;2023-07-31T08:15:41;3.78;;;2.30;;
12059;SDS011;6091;51.432;6.880;2023-07-31T08:18:12;3.53;;;2.45;;
12059;SDS011;6091;51.432;6.880;2023-07-31T08:20:40;2.90;;;2.08;;
12059;SDS011;6091;51.432;6.880;2023-07-31T08:23:07;3.85;;;1.75;;
12059;SDS011;6091;51.432;6.880;2023-07-31T08:25:35;2.60;;;1.83;;
12059;SDS011;6091;51.432;6.880;2023-07-31T08:28:04;3.80;;;2.75;;
12059;SDS011;6091;51.432;6.880;2023-07-31T08:30:36;4.57;;;2.63;;
12059;SDS011;6091;51.432;6.880;2023-07-31T08:33:13;4.75;;;2.40;;
12059;SDS011;6091;51.432;6.880;2023-07-31T08:35:40;3.20;;;2.10;;
12059;SDS011;6091;51.432;6.880;2023-07-31T08:38:07;4.38;;;2.28;;
12059;SDS011;6091;51.432;6.880;2023-07-31T08:40:37;3.65;;;2.03;;
12059;SDS011;6091;51.432;6.880;2023-07-31T08:43:08;4.15;;;2.10;;
12059;SDS011;6091;51.432;6.880;2023-07-31T08:45:35;5.10;;;2.88;;
12059;SDS011;6091;51.432;6.880;2023-07-31T08:48:03;3.97;;;1.83;;
12059;SDS011;6091;51.432;6.880;2023-07-31T08:50:31;4.35;;;2.17;;
12059;SDS011;6091;51.432;6.880;2023-07-31T08:52:58;2.88;;;2.03;;
12059;SDS011;6091;51.432;6.880;2023-07-31T08:55:27;7.07;;;2.70;;
12059;SDS011;6091;51.432;6.880;2023-07-31T08:57:55;2.78;;;2.10;;
12059;SDS011;6091;51.432;6.880;2023-07-31T09:00:24;2.42;;;1.95;;
12059;SDS011;6091;51.432;6.880;2023-07-31T09:02:54;2.90;;;2.20;;
12059;SDS011;6091;51.432;6.880;2023-07-31T09:05:30;3.33;;;2.15;;
12059;SDS011;6091;51.432;6.880;2023-07-31T09:07:58;4.47;;;2.33;;
12059;SDS011;6091;51.432;6.880;2023-07-31T09:10:30;5.22;;;2.22;;
12059;SDS011;6091;51.432;6.880;2023-07-31T09:12:57;5.60;;;2.30;;
12059;SDS011;6091;51.432;6.880;2023-07-31T09:15:25;3.78;;;2.13;;
12059;SDS011;6091;51.432;6.880;2023-07-31T09:18:04;2.67;;;1.90;;
12059;SDS011;6091;51.432;6.880;2023-07-31T09:20:33;4.93;;;2.00;;
12059;SDS011;6091;51.432;6.880;2023-07-31T09:23:10;2.38;;;2.17;;
12059;SDS011;6091;51.432;6.880;2023-07-31T09:25:43;3.17;;;1.90;;
12059;SDS011;6091;51.432;6.880;2023-07-31T09:28:12;3.90;;;2.00;;
12059;SDS011;6091;51.432;6.880;2023-07-31T09:30:49;4.60;;;1.90;;
12059;SDS011;6091;51.432;6.880;2023-07-31T09:33:18;3.95;;;1.80;;
12059;SDS011;6091;51.432;6.880;2023-07-31T09:35:49;3.88;;;1.73;;
12059;SDS011;6091;51.432;6.880;2023-07-31T09:38:16;4.67;;;2.40;;
12059;SDS011;6091;51.432;6.880;2023-07-31T09:40:45;3.53;;;2.25;;
12059;SDS011;6091;51.432;6.880;2023-07-31T09:43:19;2.95;;;1.83;;
12059;SDS011;6091;51.432;6.880;2023-07-31T09:45:47;3.58;;;2.03;;
12059;SDS011;6091;51.432;6.880;2023-07-31T09:48:22;3.70;;;2.03;;
12059;SDS011;6091;51.432;6.880;2023-07-31T09:50:53;2.95;;;1.98;;
12059;SDS011;6091;51.432;6.880;2023-07-31T09:53:28;3.45;;;2.08;;
12059;SDS011;6091;51.432;6.880;2023-07-31T09:55:58;3.22;;;1.80;;
12059;SDS011;6091;51.432;6.880;2023-07-31T09:58:26;2.97;;;2.00;;
12059;SDS011;6091;51.432;6.880;2023-07-31T10:00:57;4.60;;;1.83;;
12059;SDS011;6091;51.432;6.880;2023-07-31T10:03:26;5.75;;;2.20;;
12059;SDS011;6091;51.432;6.880;2023-07-31T10:05:56;3.75;;;2.33;;
12059;SDS011;6091;51.432;6.880;2023-07-31T10:08:29;3.55;;;2.03;;
12059;SDS011;6091;51.432;6.880;2023-07-31T10:11:01;4.03;;;2.03;;
12059;SDS011;6091;51.432;6.880;2023-07-31T10:13:30;5.70;;;1.83;;
12059;SDS011;6091;51.432;6.880;2023-07-31T10:16:01;2.67;;;2.30;;
12059;SDS011;6091;51.432;6.880;2023-07-31T10:18:29;4.50;;;2.00;;
12059;SDS011;6091;51.432;6.880;2023-07-31T10:20:57;3.10;;;1.73;;
12059;SDS011;6091;51.432;6.880;2023-07-31T10:23:26;3.20;;;1.80;;
12059;SDS011;6091;51.432;6.880;2023-07-31T10:25:55;2.58;;;2.00;;
12059;SDS011;6091;51.432;6.880;2023-07-31T10:28:28;3.35;;;1.77;;
12059;SDS011;6091;51.432;6.880;2023-07-31T10:31:03;3.78;;;2.03;;
12059;SDS011;6091;51.432;6.880;2023-07-31T10:33:32;3.13;;;1.92;;
12059;SDS011;6091;51.432;6.880;2023-07-31T10:36:19;2.90;;;2.05;;
12059;SDS011;6091;51.432;6.880;2023-07-31T10:38:54;2.92;;;1.60;;
12059;SDS011;6091;51.432;6.880;2023-07-31T10:41:29;3.20;;;1.63;;
12059;SDS011;6091;51.432;6.880;2023-07-31T10:43:59;3.35;;;1.95;;
12059;SDS011;6091;51.432;6.880;2023-07-31T10:46:36;3.00;;;1.75;;
12059;SDS011;6091;51.432;6.880;2023-07-31T10:49:04;4.13;;;1.60;;
12059;SDS011;6091;51.432;6.880;2023-07-31T10:51:34;2.50;;;1.77;;
12059;SDS011;6091;51.432;6.880;2023-07-31T10:54:12;3.45;;;1.92;;
12059;SDS011;6091;51.432;6.880;2023-07-31T10:56:44;3.30;;;1.90;;
12059;SDS011;6091;51.432;6.880;2023-07-31T10:59:13;4.38;;;2.00;;
12059;SDS011;6091;51.432;6.880;2023-07-31T11:01:54;4.93;;;1.90;;
12059;SDS011;6091;51.432;6.880;2023-07-31T11:04:29;2.50;;;1.58;;
12059;SDS011;6091;51.432;6.880;2023-07-31T11:06:58;2.97;;;2.00;;
12059;SDS011;6091;51.432;6.880;2023-07-31T11:09:30;2.35;;;1.67;;
12059;SDS011;6091;51.432;6.880;2023-07-31T11:11:59;3.90;;;1.50;;
12059;SDS011;6091;51.432;6.880;2023-07-31T11:14:27;3.95;;;1.67;;
12059;SDS011;6091;51.432;6.880;2023-07-31T11:16:54;3.17;;;1.60;;
12059;SDS011;6091;51.432;6.880;2023-07-31T11:19:22;2.35;;;1.95;;
12059;SDS011;6091;51.432;6.880;2023-07-31T11:21:51;2.42;;;1.88;;
12059;SDS011;6091;51.432;6.880;2023-07-31T11:24:22;2.13;;;1.70;;
12059;SDS011;6091;51.432;6.880;2023-07-31T11:26:50;1.83;;;1.65;;
12059;SDS011;6091;51.432;6.880;2023-07-31T11:29:19;2.10;;;1.40;;
12059;SDS011;6091;51.432;6.880;2023-07-31T11:31:47;1.98;;;1.63;;
12059;SDS011;6091;51.432;6.880;2023-07-31T11:34:15;1.98;;;1.55;;
12059;SDS011;6091;51.432;6.880;2023-07-31T11:36:53;1.75;;;1.45;;
12059;SDS011;6091;51.432;6.880;2023-07-31T11:39:25;2.30;;;1.40;;
12059;SDS011;6091;51.432;6.880;2023-07-31T11:41:58;4.00;;;1.45;;
12059;SDS011;6091;51.432;6.880;2023-07-31T11:44:26;2.30;;;1.50;;
12059;SDS011;6091;51.432;6.880;2023-07-31T11:47:06;1.70;;;1.25;;
12059;SDS011;6091;51.432;6.880;2023-07-31T11:49:34;1.80;;;1.50;;
12059;SDS011;6091;51.432;6.880;2023-07-31T11:52:03;2.53;;;1.52;;
12059;SDS011;6091;51.432;6.880;2023-07-31T11:54:31;1.67;;;1.58;;
12059;SDS011;6091;51.432;6.880;2023-07-31T11:56:58;2.58;;;1.40;;
12059;SDS011;6091;51.432;6.880;2023-07-31T11:59:27;1.85;;;1.60;;
12059;SDS011;6091;51.432;6.880;2023-07-31T12:01:57;1.85;;;1.45;;
12059;SDS011;6091;51.432;6.880;2023-07-31T12:04:25;1.55;;;1.45;;
12059;SDS011;6091;51.432;6.880;2023-07-31T12:06:52;2.47;;;1.40;;
12059;SDS011;6091;51.432;6.880;2023-07-31T12:09:23;2.38;;;1.50;;
12059;SDS011;6091;51.432;6.880;2023-07-31T12:11:52;1.90;;;1.48;;
12059;SDS011;6091;51.432;6.880;2023-07-31T12:16:56;1.98;;;1.50;;
12059;SDS011;6091;51.432;6.880;2023-07-31T12:19:26;1.60;;;1.50;;
12059;SDS011;6091;51.432;6.880;2023-07-31T12:21:57;2.15;;;1.50;;
12059;SDS011;6091;51.432;6.880;2023-07-31T12:24:26;1.83;;;1.52;;
12059;SDS011;6091;51.432;6.880;2023-07-31T12:26:54;1.50;;;1.17;;
12059;SDS011;6091;51.432;6.880;2023-07-31T12:29:21;1.50;;;1.40;;
12059;SDS011;6091;51.432;6.880;2023-07-31T12:31:49;3.03;;;1.60;;
12059;SDS011;6091;51.432;6.880;2023-07-31T12:34:16;1.70;;;1.40;;
12059;SDS011;6091;51.432;6.880;2023-07-31T12:36:49;1.42;;;1.30;;
12059;SDS011;6091;51.432;6.880;2023-07-31T12:39:18;1.30;;;1.20;;
12059;SDS011;6091;51.432;6.880;2023-07-31T12:41:45;1.75;;;1.50;;
12059;SDS011;6091;51.432;6.880;2023-07-31T12:44:12;2.15;;;1.40;;
12059;SDS011;6091;51.432;6.880;2023-07-31T12:46:39;1.60;;;1.50;;
12059;SDS011;6091;51.432;6.880;2023-07-31T12:49:07;1.98;;;1.60;;
12059;SDS011;6091;51.432;6.880;2023-07-31T12:51:34;1.60;;;1.30;;
12059;SDS011;6091;51.432;6.880;2023-07-31T12:54:01;1.38;;;1.27;;
12059;SDS011;6091;51.432;6.880;2023-07-31T12:56:28;1.40;;;1.30;;
12059;SDS011;6091;51.432;6.880;2023-07-31T12:58:55;1.85;;;1.02;;
12059;SDS011;6091;51.432;6.880;2023-07-31T13:01:22;1.83;;;1.50;;
12059;SDS011;6091;51.432;6.880;2023-07-31T13:03:49;1.25;;;1.15;;
12059;SDS011;6091;51.432;6.880;2023-07-31T13:06:17;1.33;;;1.00;;
12059;SDS011;6091;51.432;6.880;2023-07-31T13:08:44;1.70;;;1.42;;
12059;SDS011;6091;51.432;6.880;2023-07-31T13:11:11;2.20;;;1.40;;
12059;SDS011;6091;51.432;6.880;2023-07-31T13:13:38;1.52;;;1.42;;
12059;SDS011;6091;51.432;6.880;2023-07-31T13:16:05;1.23;;;1.13;;
12059;SDS011;6091;51.432;6.880;2023-07-31T13:18:32;1.40;;;1.30;;
12059;SDS011;6091;51.432;6.880;2023-07-31T13:21:00;1.30;;;1.20;;
12059;SDS011;6091;51.432;6.880;2023-07-31T13:23:27;1.35;;;1.23;;
12059;SDS011;6091;51.432;6.880;2023-07-31T13:25:54;3.00;;;1.35;;
12059;SDS011;6091;51.432;6.880;2023-07-31T13:28:21;1.52;;;1.42;;
12059;SDS011;6091;51.432;6.880;2023-07-31T13:30:48;1.92;;;1.40;;
12059;SDS011;6091;51.432;6.880;2023-07-31T13:33:15;1.45;;;1.30;;
12059;SDS011;6091;51.432;6.880;2023-07-31T13:35:59;2.60;;;1.40;;
12059;SDS011;6091;51.432;6.880;2023-07-31T13:38:26;1.65;;;1.30;;
12059;SDS011;6091;51.432;6.880;2023-07-31T13:40:54;1.60;;;1.45;;
12059;SDS011;6091;51.432;6.880;2023-07-31T13:43:21;1.88;;;1.40;;
12059;SDS011;6091;51.432;6.880;2023-07-31T13:45:47;2.15;;;1.40;;
12059;SDS011;6091;51.432;6.880;2023-07-31T13:48:27;1.50;;;1.35;;
12059;SDS011;6091;51.432;6.880;2023-07-31T13:50:57;1.55;;;1.20;;
12059;SDS011;6091;51.432;6.880;2023-07-31T13:53:24;1.92;;;1.55;;
12059;SDS011;6091;51.432;6.880;2023-07-31T13:55:53;1.45;;;1.35;;
12059;SDS011;6091;51.432;6.880;2023-07-31T13:58:20;3.38;;;1.38;;
12059;SDS011;6091;51.432;6.880;2023-07-31T14:00:47;2.53;;;1.40;;
12059;SDS011;6091;51.432;6.880;2023-07-31T14:03:14;1.52;;;1.30;;
12059;SDS011;6091;51.432;6.880;2023-07-31T14:05:42;1.73;;;1.52;;
12059;SDS011;6091;51.432;6.880;2023-07-31T14:08:09;3.05;;;2.00;;
12059;SDS011;6091;51.432;6.880;2023-07-31T14:10:36;4.38;;;1.55;;
12059;SDS011;6091;51.432;6.880;2023-07-31T14:13:03;2.05;;;1.65;;
12059;SDS011;6091;51.432;6.880;2023-07-31T14:15:30;1.55;;;1.45;;
12059;SDS011;6091;51.432;6.880;2023-07-31T14:17:58;2.03;;;1.40;;
12059;SDS011;6091;51.432;6.880;2023-07-31T14:20:27;3.75;;;1.60;;
12059;SDS011;6091;51.432;6.880;2023-07-31T14:22:56;1.92;;;1.25;;
12059;SDS011;6091;51.432;6.880;2023-07-31T14:25:23;1.65;;;1.55;;
12059;SDS011;6091;51.432;6.880;2023-07-31T14:27:50;1.83;;;1.48;;
12059;SDS011;6091;51.432;6.880;2023-07-31T14:30:17;1.30;;;1.20;;
12059;SDS011;6091;51.432;6.880;2023-07-31T14:32:44;2.95;;;1.23;;
12059;SDS011;6091;51.432;6.880;2023-07-31T14:35:12;2.45;;;1.40;;
12059;SDS011;6091;51.432;6.880;2023-07-31T14:37:40;1.65;;;1.48;;
12059;SDS011;6091;51.432;6.880;2023-07-31T14:40:11;2.33;;;1.20;;
12059;SDS011;6091;51.432;6.880;2023-07-31T14:42:39;1.60;;;1.50;;
12059;SDS011;6091;51.432;6.880;2023-07-31T14:45:07;3.05;;;1.52;;
12059;SDS011;6091;51.432;6.880;2023-07-31T14:47:36;2.38;;;1.40;;
12059;SDS011;6091;51.432;6.880;2023-07-31T14:50:03;1.75;;;1.50;;
12059;SDS011;6091;51.432;6.880;2023-07-31T14:52:31;2.05;;;1.38;;
12059;SDS011;6091;51.432;6.880;2023-07-31T14:54:59;3.55;;;1.45;;
12059;SDS011;6091;51.432;6.880;2023-07-31T14:57:26;1.90;;;1.55;;
12059;SDS011;6091;51.432;6.880;2023-07-31T14:59:54;2.10;;;1.55;;
12059;SDS011;6091;51.432;6.880;2023-07-31T15:02:21;1.73;;;1.40;;
12059;SDS011;6091;51.432;6.880;2023-07-31T15:04:48;2.20;;;1.70;;
12059;SDS011;6091;51.432;6.880;2023-07-31T15:07:15;2.15;;;1.50;;
12059;SDS011;6091;51.432;6.880;2023-07-31T15:09:43;1.67;;;1.50;;
12059;SDS011;6091;51.432;6.880;2023-07-31T15:12:10;2.08;;;1.42;;
12059;SDS011;6091;51.432;6.880;2023-07-31T15:14:37;1.48;;;1.25;;
12059;SDS011;6091;51.432;6.880;2023-07-31T15:17:05;1.60;;;1.50;;
12059;SDS011;6091;51.432;6.880;2023-07-31T15:19:32;4.43;;;1.70;;